Time,TemperatureF,DewpointF,PressureIn,WindDirection,WindDirectionDegrees,WindSpeedMPH,WindSpeedGustMPH,Humidity,HourlyPrecipIn,Conditions,Clouds,dailyrainin,SoftwareType,DateUTC
2013-02-26 00:01:00,31.8,26.0,30.07,ENE,75,3.0,10.0,79,0.00,,---,0.00,VWS V14.01,2013-02-26 05:01:00,
2013-02-26 00:16:00,31.8,26.4,30.06,ENE,57,7.0,10.0,80,0.00,,---,0.00,VWS V14.01,2013-02-26 05:16:00,
2013-02-26 00:31:00,31.4,26.0,30.05,NE,49,5.0,8.0,80,0.00,,---,0.00,VWS V14.01,2013-02-26 05:31:00,
2013-02-26 00:46:00,31.3,25.9,30.04,ENE,70,4.0,11.0,80,0.00,,---,0.00,VWS V14.01,2013-02-26 05:46:00,
2013-02-26 01:01:00,31.0,25.6,30.03,East,79,3.0,9.0,80,0.00,,---,0.00,VWS V14.01,2013-02-26 06:01:00,
2013-02-26 01:16:00,30.8,25.4,30.03,East,82,3.0,10.0,80,0.00,,---,0.00,VWS V14.01,2013-02-26 06:16:00,
2013-02-26 01:31:00,30.9,25.2,30.02,East,86,9.0,10.0,79,0.00,,---,0.00,VWS V14.01,2013-02-26 06:31:00,
2013-02-26 01:46:00,30.7,24.7,30.02,East,95,6.0,12.0,78,0.00,,---,0.00,VWS V14.01,2013-02-26 06:46:00,
2013-02-26 02:01:00,30.5,24.5,30.01,ENE,78,4.0,11.0,78,0.00,,---,0.00,VWS V14.01,2013-02-26 07:01:00,
2013-02-26 02:16:00,30.5,24.2,30.00,East,79,8.0,13.0,77,0.00,,---,0.00,VWS V14.01,2013-02-26 07:16:00,
2013-02-26 02:31:00,30.2,23.9,30.01,ESE,104,4.0,14.0,77,0.00,,---,0.00,VWS V14.01,2013-02-26 07:31:00,
2013-02-26 02:46:00,30.2,23.9,30.00,ENE,70,9.0,15.0,77,0.00,,---,0.00,VWS V14.01,2013-02-26 07:46:00,
2013-02-26 03:01:00,30.2,23.9,29.98,ENE,73,5.0,15.0,77,0.00,,---,0.00,VWS V14.01,2013-02-26 08:01:00,
2013-02-26 03:16:00,30.2,23.9,29.97,ENE,75,7.0,14.0,77,0.00,,---,0.00,VWS V14.01,2013-02-26 08:16:00,
2013-02-26 03:31:00,30.2,23.9,29.96,NE,47,8.0,14.0,77,0.00,,---,0.00,VWS V14.01,2013-02-26 08:31:00,
2013-02-26 03:46:00,30.2,23.6,29.95,East,84,2.0,15.0,76,0.00,,---,0.00,VWS V14.01,2013-02-26 08:46:00,
2013-02-26 04:01:00,30.0,23.7,29.92,ENE,73,8.0,15.0,77,0.00,,---,0.00,VWS V14.01,2013-02-26 09:01:00,
2013-02-26 04:16:00,30.2,23.6,29.91,ENE,73,12.0,17.0,76,0.00,,---,0.00,VWS V14.01,2013-02-26 09:16:00,
2013-02-26 04:31:00,30.5,23.9,29.90,ENE,63,8.0,17.0,76,0.00,,---,0.00,VWS V14.01,2013-02-26 09:31:00,
2013-02-26 04:46:00,30.8,23.8,29.90,East,100,5.0,16.0,75,0.00,,---,0.00,VWS V14.01,2013-02-26 09:46:00,
2013-02-26 05:01:00,30.9,23.9,29.92,ENE,78,2.0,14.0,75,0.00,,---,0.00,VWS V14.01,2013-02-26 10:01:00,
2013-02-26 05:16:00,30.7,23.7,29.91,East,80,7.0,14.0,75,0.00,,---,0.00,VWS V14.01,2013-02-26 10:16:00,
2013-02-26 05:31:00,30.7,24.0,29.88,ESE,115,10.0,16.0,76,0.00,,---,0.00,VWS V14.01,2013-02-26 10:31:00,
2013-02-26 05:46:00,30.7,23.7,29.88,ENE,72,10.0,18.0,75,0.00,,---,0.00,VWS V14.01,2013-02-26 10:46:00,
2013-02-26 06:01:00,30.5,23.9,29.87,NE,40,11.0,16.0,76,0.00,,---,0.00,VWS V14.01,2013-02-26 11:01:00,
2013-02-26 06:16:00,30.6,24.0,29.86,ENE,60,8.0,16.0,76,0.00,,---,0.00,VWS V14.01,2013-02-26 11:16:00,
2013-02-26 06:31:00,30.7,24.0,29.83,NE,53,5.0,14.0,76,0.00,,---,0.00,VWS V14.01,2013-02-26 11:31:00,
2013-02-26 06:46:00,30.9,23.9,29.84,NE,53,12.0,18.0,75,0.00,,---,0.00,VWS V14.01,2013-02-26 11:46:00,
2013-02-26 07:01:00,31.1,23.8,29.84,ENE,66,13.0,21.0,74,0.00,,---,0.00,VWS V14.01,2013-02-26 12:01:00,
2013-02-26 07:16:00,31.3,23.7,29.84,East,83,15.0,23.0,73,0.00,,---,0.00,VWS V14.01,2013-02-26 12:16:00,
2013-02-26 07:31:00,31.5,23.9,29.82,ENE,57,10.0,25.0,73,0.00,,---,0.00,VWS V14.01,2013-02-26 12:31:00,
2013-02-26 07:46:00,31.7,23.7,29.82,East,84,6.0,23.0,72,0.00,,---,0.00,VWS V14.01,2013-02-26 12:46:00,
2013-02-26 08:01:00,32.0,24.0,29.82,East,98,6.0,22.0,72,0.00,,---,0.00,VWS V14.01,2013-02-26 13:01:00,
2013-02-26 08:16:00,32.4,24.1,29.82,East,84,15.0,25.0,71,0.00,,---,0.00,VWS V14.01,2013-02-26 13:16:00,
2013-02-26 08:31:00,32.4,24.1,29.82,ESE,104,7.0,25.0,71,0.00,,---,0.00,VWS V14.01,2013-02-26 13:31:00,
2013-02-26 08:46:00,32.5,24.2,29.81,ENE,74,13.0,21.0,71,0.00,,---,0.00,VWS V14.01,2013-02-26 13:46:00,
2013-02-26 09:01:00,32.7,24.0,29.79,ENE,63,10.0,23.0,70,0.00,,---,0.00,VWS V14.01,2013-02-26 14:01:00,
2013-02-26 09:16:00,33.0,24.3,29.77,East,86,13.0,24.0,70,0.00,,---,0.00,VWS V14.01,2013-02-26 14:16:00,
2013-02-26 09:31:00,33.2,24.1,29.75,East,96,10.0,22.0,69,0.00,,---,0.00,VWS V14.01,2013-02-26 14:31:00,
2013-02-26 09:46:00,33.4,24.3,29.74,NE,55,7.0,22.0,69,0.00,,---,0.00,VWS V14.01,2013-02-26 14:46:00,
2013-02-26 10:01:00,33.5,24.4,29.71,East,81,15.0,23.0,69,0.00,,---,0.00,VWS V14.01,2013-02-26 15:01:00,
2013-02-26 10:16:00,33.6,24.9,29.69,ENE,73,12.0,21.0,70,0.00,,---,0.00,VWS V14.01,2013-02-26 15:16:00,
2013-02-26 10:31:00,33.5,25.8,29.68,ENE,63,8.0,31.0,73,0.01,,---,0.01,VWS V14.01,2013-02-26 15:31:00,
2013-02-26 10:46:00,32.9,26.8,29.67,ENE,73,11.0,27.0,78,0.02,,---,0.02,VWS V14.01,2013-02-26 15:46:00,
2013-02-26 11:01:00,32.6,27.1,29.65,East,89,15.0,24.0,80,0.03,,---,0.03,VWS V14.01,2013-02-26 16:01:00,
2013-02-26 11:16:00,32.5,27.6,29.65,ENE,74,5.0,25.0,82,0.06,,---,0.06,VWS V14.01,2013-02-26 16:16:00,
2013-02-26 11:31:00,32.7,27.8,29.63,East,86,9.0,23.0,82,0.09,,---,0.09,VWS V14.01,2013-02-26 16:31:00,
2013-02-26 11:46:00,32.9,28.3,29.61,East,101,13.0,24.0,83,0.10,,---,0.11,VWS V14.01,2013-02-26 16:46:00,
2013-02-26 12:01:00,33.0,28.4,29.60,ENE,78,9.0,21.0,83,0.10,,---,0.12,VWS V14.01,2013-02-26 17:01:00,
2013-02-26 12:16:00,33.2,28.6,29.59,East,81,15.0,22.0,83,0.09,,---,0.12,VWS V14.01,2013-02-26 17:16:00,
2013-02-26 12:31:00,33.6,29.3,29.58,ENE,63,11.0,26.0,84,0.07,,---,0.13,VWS V14.01,2013-02-26 17:31:00,
2013-02-26 12:46:00,33.3,29.3,29.58,ESE,103,9.0,24.0,85,0.05,,---,0.14,VWS V14.01,2013-02-26 17:46:00,
2013-02-26 13:01:00,33.1,29.4,29.63,ESE,106,10.0,25.0,86,0.08,,---,0.19,VWS V14.01,2013-02-26 18:01:00,
2013-02-26 13:16:00,32.4,29.5,29.60,NE,54,7.0,20.0,89,0.13,,---,0.25,VWS V14.01,2013-02-26 18:16:00,
2013-02-26 13:31:00,32.4,30.1,29.59,ENE,71,15.0,21.0,91,0.17,,---,0.29,VWS V14.01,2013-02-26 18:31:00,
2013-02-26 13:46:00,32.4,29.8,29.58,ENE,70,10.0,22.0,90,0.17,,---,0.30,VWS V14.01,2013-02-26 18:46:00,
2013-02-26 14:01:00,32.3,30.0,29.56,ESE,117,11.0,18.0,91,0.16,,---,0.30,VWS V14.01,2013-02-26 19:01:00,
2013-02-26 14:16:00,32.3,30.0,29.56,ENE,71,11.0,22.0,91,0.11,,---,0.30,VWS V14.01,2013-02-26 19:16:00,
2013-02-26 14:31:00,32.2,29.9,29.55,East,89,3.0,21.0,91,0.05,,---,0.30,VWS V14.01,2013-02-26 19:31:00,
2013-02-26 14:46:00,31.9,29.8,29.55,NNE,32,7.0,17.0,92,0.02,,---,0.31,VWS V14.01,2013-02-26 19:46:00,
2013-02-26 15:01:00,31.7,29.9,29.54,NE,56,9.0,19.0,93,0.01,,---,0.31,VWS V14.01,2013-02-26 20:01:00,
2013-02-26 15:16:00,31.7,30.2,29.54,East,86,6.0,17.0,94,0.01,,---,0.31,VWS V14.01,2013-02-26 20:16:00,
2013-02-26 15:31:00,32.0,30.5,29.53,ENE,57,8.0,16.0,94,0.01,,---,0.31,VWS V14.01,2013-02-26 20:31:00,
2013-02-26 15:46:00,32.2,30.7,29.53,ENE,62,5.0,17.0,94,0.02,,---,0.32,VWS V14.01,2013-02-26 20:46:00,
2013-02-26 16:01:00,32.3,30.8,29.53,ENE,73,10.0,15.0,94,0.02,,---,0.33,VWS V14.01,2013-02-26 21:01:00,
2013-02-26 16:16:00,32.4,30.9,29.53,East,81,8.0,18.0,94,0.02,,---,0.33,VWS V14.01,2013-02-26 21:16:00,
2013-02-26 16:31:00,32.5,31.0,29.53,ENE,68,3.0,17.0,94,0.03,,---,0.34,VWS V14.01,2013-02-26 21:31:00,
2013-02-26 16:46:00,32.6,31.1,29.53,NE,48,7.0,14.0,94,0.04,,---,0.35,VWS V14.01,2013-02-26 21:46:00,
2013-02-26 17:01:00,32.5,31.0,29.53,ENE,68,11.0,16.0,94,0.03,,---,0.35,VWS V14.01,2013-02-26 22:01:00,
2013-02-26 17:16:00,32.4,30.9,29.53,NE,54,3.0,14.0,94,0.02,,---,0.35,VWS V14.01,2013-02-26 22:16:00,
2013-02-26 17:31:00,32.3,30.8,29.53,ENE,61,7.0,13.0,94,0.02,,---,0.35,VWS V14.01,2013-02-26 22:31:00,
2013-02-26 17:46:00,32.2,30.9,29.53,ENE,76,3.0,12.0,95,0.02,,---,0.36,VWS V14.01,2013-02-26 22:46:00,
2013-02-26 18:01:00,32.2,30.9,29.54,ENE,77,5.0,11.0,95,0.01,,---,0.36,VWS V14.01,2013-02-26 23:01:00,
2013-02-26 18:16:00,32.2,30.9,29.53,NE,45,5.0,13.0,95,0.01,,---,0.36,VWS V14.01,2013-02-26 23:16:00,
2013-02-26 18:31:00,32.1,30.8,29.54,NE,53,2.0,10.0,95,0.02,,---,0.37,VWS V14.01,2013-02-26 23:31:00,
2013-02-26 18:46:00,32.2,30.9,29.53,East,82,6.0,13.0,95,0.02,,---,0.37,VWS V14.01,2013-02-26 23:46:00,
2013-02-26 19:01:00,32.1,30.8,29.53,ENE,71,4.0,9.0,95,0.01,,---,0.37,VWS V14.01,2013-02-27 00:01:00,
2013-02-26 19:16:00,32.0,30.7,29.53,ENE,78,1.0,9.0,95,0.01,,---,0.37,VWS V14.01,2013-02-27 00:16:00,
2013-02-26 19:31:00,32.0,30.7,29.54,NE,55,3.0,10.0,95,0.02,,---,0.38,VWS V14.01,2013-02-27 00:31:00,
2013-02-26 19:46:00,32.0,30.7,29.54,ENE,74,3.0,10.0,95,0.01,,---,0.38,VWS V14.01,2013-02-27 00:46:00,
2013-02-26 20:01:00,31.9,30.6,29.54,ENE,61,2.0,9.0,95,0.01,,---,0.38,VWS V14.01,2013-02-27 01:01:00,
2013-02-26 20:16:00,31.8,30.5,29.53,NE,51,1.0,7.0,95,0.01,,---,0.38,VWS V14.01,2013-02-27 01:16:00,
2013-02-26 20:31:00,31.8,30.5,29.53,NE,44,2.0,7.0,95,0.01,,---,0.38,VWS V14.01,2013-02-27 01:31:00,
2013-02-26 20:46:00,31.6,30.3,29.52,NE,39,2.0,7.0,95,0.00,,---,0.38,VWS V14.01,2013-02-27 01:46:00,
2013-02-26 21:01:00,31.7,30.7,29.52,NE,56,1.0,7.0,96,0.00,,---,0.38,VWS V14.01,2013-02-27 02:01:00,
2013-02-26 21:31:00,31.7,30.7,29.52,NE,53,2.0,5.0,96,0.00,,---,0.38,VWS V14.01,2013-02-27 02:31:00,
2013-02-26 21:46:00,31.7,30.7,29.52,NE,50,2.0,4.0,96,0.00,,---,0.38,VWS V14.01,2013-02-27 02:46:00,
2013-02-26 22:01:00,31.7,30.7,29.52,NE,56,1.0,5.0,96,0.00,,---,0.38,VWS V14.01,2013-02-27 03:01:00,
2013-02-26 22:16:00,31.7,30.7,29.52,ENE,57,0.0,4.0,96,0.00,,---,0.38,VWS V14.01,2013-02-27 03:16:00,
2013-02-26 22:31:00,31.7,30.7,29.51,NE,55,1.0,3.0,96,0.00,,---,0.38,VWS V14.01,2013-02-27 03:31:00,
2013-02-26 22:46:00,31.7,30.7,29.51,NE,55,0.0,3.0,96,0.00,,---,0.38,VWS V14.01,2013-02-27 03:46:00,
2013-02-26 23:01:00,31.7,30.7,29.51,NE,55,1.0,3.0,96,0.00,,---,0.38,VWS V14.01,2013-02-27 04:01:00,
2013-02-26 23:16:00,31.6,30.6,29.50,NE,55,0.0,2.0,96,0.01,,---,0.39,VWS V14.01,2013-02-27 04:16:00,
2013-02-26 23:31:00,31.6,30.6,29.50,NE,55,2.0,3.0,96,0.01,,---,0.39,VWS V14.01,2013-02-27 04:31:00,
2013-02-26 23:46:00,31.6,30.6,29.50,NE,55,0.0,2.0,96,0.01,,---,0.39,VWS V14.01,2013-02-27 04:46:00,